This is the latest recevied weather packets stored in our database for station/object NM5PB. If no packets are shown the sender has not sent any weather packets the latest 1 day(s).
| Time | Temp. | Humidity | Pressure | Rain* | Wind** | Luminosity | Snow |
|---|---|---|---|---|---|---|---|
| 1778080264 | 9.44° C | 46% | - | 0 mm | - | - | - |
| 1778073664 | 6.11° C | 58% | - | 0 mm | - | - | - |
| 1778073064 | 5.56° C | 60% | - | 0 mm | - | - | - |
| 1778071864 | 5° C | 60% | - | 0 mm | - | - | - |
| 1778071264 | 5° C | 60% | - | 0 mm | - | - | - |
| 1778067064 | 3.89° C | 62% | - | 0 mm | - | - | - |
| 1778064664 | 3.89° C | 63% | - | 0 mm | - | - | - |
| 1778062264 | 3.89° C | 63% | - | 0 mm | - | - | - |
| 1778061064 | 3.89° C | 62% | - | 0 mm | - | - | - |
| 1778060464 | 3.89° C | 62% | - | 0 mm | - | - | - |
| 1778059864 | 3.89° C | 62% | - | 0 mm | - | - | - |
| 1778059264 | 4.44° C | 61% | - | 0 mm | - | - | - |
| 1778058664 | 3.89° C | 62% | - | 0 mm | - | - | - |
| 1778058064 | 4.44° C | 62% | - | 0 mm | - | - | - |
| 1778057464 | 4.44° C | 62% | - | 0 mm | - | - | - |
| 1778056864 | 4.44° C | 61% | - | 0 mm | - | - | - |
| 1778055664 | 4.44° C | 62% | - | 0 mm | - | - | - |
| 1778055064 | 4.44° C | 62% | - | 0 mm | - | - | - |
| 1778054464 | 4.44° C | 63% | - | 0 mm | - | - | - |
| 1778053864 | 3.89° C | 65% | - | 0 mm | - | - | - |
| 1778053264 | 3.33° C | 70% | - | 0 mm | - | - | - |
| 1778052664 | 2.78° C | 77% | - | 0 mm | - | - | - |
| 1778052064 | 2.78° C | 77% | - | 0 mm | - | - | - |
| 1778051464 | 2.78° C | 77% | - | 0 mm | - | - | - |
| 1778050864 | 2.78° C | 77% | - | 0 mm | - | - | - |
* Rain latest hour (hover to see other rain measurements)
** Current wind speed in m/s (hover to see current wind gust speed)